KBIF/BIF METAR and TAF weather

Enter ICAO airport designator
Station Type Date Time Source
KBIF METAR 2019/02/23 02:42 UTC NOAA

KBIF 230242Z AUTO 36004KT 6SM HZ CLR 03/00 A2986 RMK AO2 SNB18E42 SLP102 VISNO RWY03 CHINO RWY03 $


Station Type Date Time Source
KBIF Decoded METAR 2019/02/23 02:42 UTC NOAA

Biggs Army Air Field / Ft. Bliss, TX, United States (KBIF) 31-51N 106-23W
Feb 22, 2019 - 09:42 PM EST / 2019.02.23 0242 UTC
Wind: from the N (360 degrees) at 5 MPH (4 KT):0
Visibility: 6 mile(s):0
Sky conditions: clear
Weather: haze
Temperature: 37 F (3 C)
Dew Point: 32 F (0 C)
Relative Humidity: 80%
Pressure (altimeter): 29.86 in. Hg (1011 hPa)
ob: KBIF 230242Z AUTO 36004KT 6SM HZ CLR 03/00 A2986 RMK AO2 SNB18E42 SLP102 VISNO RWY03 CHINO RWY03
cycle: 2

Station Type Date Time Source
KBIF TAF 2019/02/22 22:45 UTC NOAA

TAF
AMD KBIF 222239Z 2222/2404 20025G35KT 8000 BLDU FEW060 BKN100 520009 QNH2962INS
BECMG 2223/2224 20035G45KT 8000 BLDU SCT040 OVC055 620559 530009 QNH2960INS
TEMPO 2301/2305 6000 -RASN OVC040 620409
BECMG 2308/2309 23030G40KT 9999 NSW FEW025 530009 QNH2974INS
BECMG 2312/2313 26025G35KT 9999 FEW025 530009 QNH3002INS
BECMG 2315/2316 27015G25KT 9999 SKC 520009 QNH3015INS
BECMG 2319/2320 28012G20KT 9999 SKC QNH3011INS
BECMG 2401/2402 28009KT 9999 SKC QNH3013INS TX19/2222Z TNM01/2312Z


Example: see airport list